Time;durP1;ratioP1;P1;durP2;ratioP2;P2;SDS_P1;SDS_P2;PMS_P1;PMS_P2;Temp;Humidity;BMP_temperature;BMP_pressure;BME280_temperature;BME280_humidity;BME280_pressure;Samples;Min_cycle;Max_cycle;Signal;HPM_P1;HPM_P2
2021/11/11 00:00:25;;;;;;;7.77;6.50;;;;;;;;;;5064572;28;20175;-80
2021/11/11 00:02:51;;;;;;;8.07;6.30;;;;;;;;;;5068678;28;20207;-80
2021/11/11 00:05:18;;;;;;;9.57;6.67;;;;;;;;;;5055088;28;20188;-79
2021/11/11 00:07:44;;;;;;;9.70;6.00;;;;;;;;;;5082053;28;20526;-79
2021/11/11 00:10:11;;;;;;;7.33;6.30;;;;;;;;;;5061408;28;20188;-79
2021/11/11 00:12:38;;;;;;;8.07;6.23;;;;;;;;;;5061327;28;20177;-79
2021/11/11 00:15:05;;;;;;;11.27;6.30;;;;;;;;;;5069729;28;20256;-79
2021/11/11 00:17:31;;;;;;;8.00;6.77;;;;;;;;;;5062038;28;20187;-81
2021/11/11 00:19:57;;;;;;;8.27;6.53;;;;;;;;;;5062103;28;20181;-80
2021/11/11 00:22:24;;;;;;;10.17;6.93;;;;;;;;;;5076449;28;20184;-79
2021/11/11 00:24:50;;;;;;;9.33;6.73;;;;;;;;;;5080064;28;20185;-81
2021/11/11 00:27:17;;;;;;;7.37;5.50;;;;;;;;;;5063314;28;20234;-79
2021/11/11 00:29:44;;;;;;;9.70;6.87;;;;;;;;;;5060734;28;20192;-80
2021/11/11 00:32:10;;;;;;;11.63;6.57;;;;;;;;;;5074291;28;20197;-81
2021/11/11 00:34:36;;;;;;;9.77;6.47;;;;;;;;;;5066164;28;20204;-81
2021/11/11 00:37:02;;;;;;;12.17;6.73;;;;;;;;;;5068021;28;20176;-81
2021/11/11 00:39:28;;;;;;;8.67;6.60;;;;;;;;;;5070493;28;20188;-79
2021/11/11 00:41:54;;;;;;;8.47;7.23;;;;;;;;;;5078651;28;20184;-80
2021/11/11 00:44:21;;;;;;;8.07;6.93;;;;;;;;;;5065430;28;20184;-81
2021/11/11 00:46:48;;;;;;;12.73;7.13;;;;;;;;;;5063614;28;20670;-81
2021/11/11 00:49:14;;;;;;;10.07;6.60;;;;;;;;;;5064964;28;20261;-80
2021/11/11 00:51:41;;;;;;;9.27;6.60;;;;;;;;;;5078588;28;20207;-81
2021/11/11 00:54:07;;;;;;;11.63;6.10;;;;;;;;;;5074879;28;20294;-81
2021/11/11 00:56:34;;;;;;;6.93;6.10;;;;;;;;;;5065853;28;20179;-81
2021/11/11 00:59:01;;;;;;;10.97;6.70;;;;;;;;;;5056694;28;20255;-81
2021/11/11 01:01:29;;;;;;;8.07;7.07;;;;;;;;;;5062717;28;20192;-81
2021/11/11 01:03:55;;;;;;;8.67;6.27;;;;;;;;;;5078972;28;20670;-81
2021/11/11 01:06:21;;;;;;;8.33;6.40;;;;;;;;;;5080857;28;20268;-81
2021/11/11 01:08:48;;;;;;;9.43;6.97;;;;;;;;;;5099338;28;20182;-81
2021/11/11 01:11:14;;;;;;;8.43;6.13;;;;;;;;;;5060835;28;20215;-80
2021/11/11 01:13:43;;;;;;;9.77;6.87;;;;;;;;;;5066914;28;20179;-79
2021/11/11 01:16:09;;;;;;;6.63;5.23;;;;;;;;;;5065111;28;20211;-80
2021/11/11 01:18:35;;;;;;;7.30;6.07;;;;;;;;;;5064340;28;20208;-80
2021/11/11 01:21:01;;;;;;;8.93;6.60;;;;;;;;;;5059716;28;20188;-79
2021/11/11 01:23:27;;;;;;;8.97;6.60;;;;;;;;;;5056766;28;20184;-80
2021/11/11 01:25:53;;;;;;;8.50;6.37;;;;;;;;;;5056661;28;20695;-80
2021/11/11 01:28:19;;;;;;;7.27;6.40;;;;;;;;;;5083805;28;20186;-81
2021/11/11 01:30:45;;;;;;;7.17;6.03;;;;;;;;;;5059985;28;20712;-81
2021/11/11 01:33:13;;;;;;;8.90;6.10;;;;;;;;;;5065212;28;20690;-81
2021/11/11 01:35:39;;;;;;;11.23;6.80;;;;;;;;;;5057366;28;20179;-81
2021/11/11 01:38:05;;;;;;;8.67;5.97;;;;;;;;;;5077573;28;20619;-80
2021/11/11 01:40:32;;;;;;;7.20;6.50;;;;;;;;;;5076080;28;20185;-81
2021/11/11 01:42:59;;;;;;;7.03;6.27;;;;;;;;;;5080042;28;20606;-81
2021/11/11 01:45:25;;;;;;;10.77;5.97;;;;;;;;;;5066714;28;20200;-82
2021/11/11 01:47:52;;;;;;;8.47;6.73;;;;;;;;;;5067926;28;20176;-81
2021/11/11 01:50:18;;;;;;;7.10;5.83;;;;;;;;;;5075648;28;20188;-81
2021/11/11 01:52:44;;;;;;;9.40;6.30;;;;;;;;;;5078211;28;20651;-81
2021/11/11 01:55:11;;;;;;;8.80;6.03;;;;;;;;;;5060676;28;20183;-82
2021/11/11 01:57:37;;;;;;;8.10;5.87;;;;;;;;;;5072845;28;20175;-82
2021/11/11 02:00:06;;;;;;;7.30;6.60;;;;;;;;;;5080844;28;20187;-81
2021/11/11 02:02:32;;;;;;;8.97;6.77;;;;;;;;;;5062725;28;20212;-81
2021/11/11 02:04:58;;;;;;;9.27;6.10;;;;;;;;;;5055986;28;20189;-81
2021/11/11 02:07:24;;;;;;;9.43;6.50;;;;;;;;;;5078808;28;20186;-80
2021/11/11 02:09:50;;;;;;;9.37;6.30;;;;;;;;;;5090827;28;20702;-79
2021/11/11 02:12:17;;;;;;;7.40;6.07;;;;;;;;;;5060847;28;20302;-81
2021/11/11 02:14:43;;;;;;;8.10;6.40;;;;;;;;;;5059013;28;20188;-81
2021/11/11 02:17:10;;;;;;;9.67;6.33;;;;;;;;;;5072841;28;20631;-81
2021/11/11 02:19:37;;;;;;;7.47;5.97;;;;;;;;;;5074097;28;20177;-81
2021/11/11 02:22:04;;;;;;;8.53;6.73;;;;;;;;;;5076578;28;20246;-80
2021/11/11 02:24:33;;;;;;;7.10;6.23;;;;;;;;;;5063140;28;20211;-81
2021/11/11 02:26:59;;;;;;;7.67;6.03;;;;;;;;;;5065127;28;20552;-79
2021/11/11 02:29:27;;;;;;;8.17;6.37;;;;;;;;;;5063391;28;20230;-81
2021/11/11 02:31:53;;;;;;;6.73;5.57;;;;;;;;;;5052594;28;20303;-82
2021/11/11 02:34:19;;;;;;;10.23;6.23;;;;;;;;;;5087253;28;20324;-80
2021/11/11 02:36:59;;;;;;;9.07;6.20;;;;;;;;;;5064788;28;20184;-79
2021/11/11 02:39:30;;;;;;;7.43;6.20;;;;;;;;;;5083727;28;20183;-80
2021/11/11 02:41:56;;;;;;;7.97;5.77;;;;;;;;;;5067055;28;20505;-79
2021/11/11 02:44:22;;;;;;;9.53;6.47;;;;;;;;;;5080240;28;20550;-79
2021/11/11 02:46:48;;;;;;;9.77;6.57;;;;;;;;;;5086169;28;20186;-80
2021/11/11 02:49:14;;;;;;;9.87;5.77;;;;;;;;;;5068788;28;20207;-80
2021/11/11 02:51:40;;;;;;;8.73;6.40;;;;;;;;;;5069452;28;20204;-81
2021/11/11 02:54:06;;;;;;;8.23;6.03;;;;;;;;;;5074632;28;20168;-81
2021/11/11 02:56:32;;;;;;;7.93;5.70;;;;;;;;;;5075948;28;20186;-80
2021/11/11 02:58:58;;;;;;;8.47;6.03;;;;;;;;;;5075684;28;20173;-80
2021/11/11 03:01:25;;;;;;;9.87;6.77;;;;;;;;;;5063551;28;20609;-81
2021/11/11 03:03:51;;;;;;;7.90;5.87;;;;;;;;;;5064976;28;20563;-80
2021/11/11 03:06:17;;;;;;;8.07;6.03;;;;;;;;;;5090858;28;20192;-80
2021/11/11 03:08:44;;;;;;;7.23;5.97;;;;;;;;;;5084650;28;20245;-79
2021/11/11 03:11:10;;;;;;;9.20;6.23;;;;;;;;;;5064387;28;20200;-81
2021/11/11 03:13:36;;;;;;;7.00;6.03;;;;;;;;;;5081831;28;20177;-80
2021/11/11 03:16:02;;;;;;;7.67;5.83;;;;;;;;;;5058228;28;20172;-81
2021/11/11 03:18:28;;;;;;;9.83;6.83;;;;;;;;;;5072180;28;20191;-80
2021/11/11 03:20:54;;;;;;;8.30;6.10;;;;;;;;;;5068390;28;20184;-80
2021/11/11 03:23:20;;;;;;;6.67;5.73;;;;;;;;;;5074888;28;20180;-81
2021/11/11 03:25:48;;;;;;;8.17;6.07;;;;;;;;;;5061484;28;20237;-79
2021/11/11 03:28:14;;;;;;;6.77;6.00;;;;;;;;;;5071217;28;20179;-80
2021/11/11 03:30:40;;;;;;;7.67;6.10;;;;;;;;;;5077814;28;20554;-78
2021/11/11 03:33:07;;;;;;;9.40;6.60;;;;;;;;;;5064830;28;20230;-80
2021/11/11 03:35:33;;;;;;;11.27;7.10;;;;;;;;;;5064408;28;20593;-80
2021/11/11 03:38:04;;;;;;;7.70;6.50;;;;;;;;;;5060014;28;20183;-79
2021/11/11 03:40:32;;;;;;;8.00;6.30;;;;;;;;;;5067431;28;20165;-81
2021/11/11 03:42:58;;;;;;;9.47;5.97;;;;;;;;;;5064569;28;20188;-80
2021/11/11 03:45:25;;;;;;;8.60;6.90;;;;;;;;;;5060941;28;20186;-81
2021/11/11 03:47:51;;;;;;;7.17;5.40;;;;;;;;;;5082048;28;20176;-81
2021/11/11 03:50:18;;;;;;;9.17;6.10;;;;;;;;;;5081787;28;20184;-79
2021/11/11 03:52:44;;;;;;;8.53;5.97;;;;;;;;;;5066084;28;20210;-81
2021/11/11 03:55:11;;;;;;;8.67;6.40;;;;;;;;;;5065839;28;20514;-80
2021/11/11 03:57:37;;;;;;;6.43;5.33;;;;;;;;;;5056269;28;20179;-80
2021/11/11 04:00:06;;;;;;;7.20;5.50;;;;;;;;;;5063829;28;20179;-80
2021/11/11 04:02:33;;;;;;;9.03;6.20;;;;;;;;;;5054415;28;20210;-79
2021/11/11 04:04:59;;;;;;;8.10;5.90;;;;;;;;;;5059189;28;20192;-80
2021/11/11 04:07:25;;;;;;;8.00;5.67;;;;;;;;;;5067878;28;20181;-80
2021/11/11 04:09:51;;;;;;;7.27;6.17;;;;;;;;;;5054759;28;20188;-80
2021/11/11 04:12:17;;;;;;;8.10;6.40;;;;;;;;;;5064799;28;20264;-80
2021/11/11 04:14:44;;;;;;;9.40;5.83;;;;;;;;;;5064241;28;20179;-80
2021/11/11 04:17:10;;;;;;;8.23;6.60;;;;;;;;;;5071656;28;20218;-81
2021/11/11 04:19:36;;;;;;;7.37;6.30;;;;;;;;;;5070232;28;20187;-81
2021/11/11 04:22:03;;;;;;;7.50;5.93;;;;;;;;;;5070437;28;20183;-80
2021/11/11 04:24:29;;;;;;;7.70;6.50;;;;;;;;;;5066082;28;20190;-80
2021/11/11 04:27:01;;;;;;;8.20;6.07;;;;;;;;;;5065726;28;20418;-81
2021/11/11 04:29:31;;;;;;;8.17;6.10;;;;;;;;;;5084399;28;20497;-80
2021/11/11 04:32:00;;;;;;;8.37;6.33;;;;;;;;;;5067976;28;20506;-81
2021/11/11 04:34:27;;;;;;;9.27;6.30;;;;;;;;;;5062216;28;20179;-81
2021/11/11 05:01:16;;;;;;;9.33;5.73;;;;;;;;;;5088168;28;20733;-81
2021/11/11 05:03:46;;;;;;;7.23;6.00;;;;;;;;;;5079965;28;20200;-80
2021/11/11 05:06:13;;;;;;;8.37;6.73;;;;;;;;;;5067761;28;20173;-81
2021/11/11 05:08:39;;;;;;;6.43;5.77;;;;;;;;;;5067650;28;20237;-80
2021/11/11 05:11:06;;;;;;;6.60;5.90;;;;;;;;;;5064558;28;20519;-80
2021/11/11 05:13:32;;;;;;;8.90;6.00;;;;;;;;;;5086001;28;20173;-80
2021/11/11 05:15:58;;;;;;;7.57;6.53;;;;;;;;;;5061992;28;20431;-80
2021/11/11 05:18:25;;;;;;;7.20;6.50;;;;;;;;;;5064970;28;20431;-81
2021/11/11 05:20:51;;;;;;;7.30;6.07;;;;;;;;;;5087184;28;20271;-81
2021/11/11 05:23:17;;;;;;;7.77;6.60;;;;;;;;;;5062727;28;20581;-81
2021/11/11 05:25:43;;;;;;;8.00;5.50;;;;;;;;;;5075164;28;20184;-80
2021/11/11 05:28:10;;;;;;;8.30;5.87;;;;;;;;;;5067221;28;22114;-79
2021/11/11 05:30:36;;;;;;;7.87;6.00;;;;;;;;;;5067736;28;20188;-80
2021/11/11 05:33:03;;;;;;;7.80;6.40;;;;;;;;;;5064177;28;20513;-81
2021/11/11 05:35:29;;;;;;;7.67;6.27;;;;;;;;;;5056790;28;20874;-80
2021/11/11 05:37:55;;;;;;;8.10;6.17;;;;;;;;;;5063420;28;20428;-80
2021/11/11 05:40:22;;;;;;;7.80;5.80;;;;;;;;;;5065354;28;20418;-82
2021/11/11 05:42:49;;;;;;;7.33;6.07;;;;;;;;;;5086401;28;20631;-80
2021/11/11 05:45:15;;;;;;;8.10;6.50;;;;;;;;;;5080433;28;20957;-80
2021/11/11 05:47:42;;;;;;;7.77;5.50;;;;;;;;;;5060868;28;20474;-80
2021/11/11 05:50:08;;;;;;;6.83;5.60;;;;;;;;;;5085742;28;20186;-81
2021/11/11 05:52:36;;;;;;;7.90;6.70;;;;;;;;;;5070421;28;20507;-80
2021/11/11 05:55:02;;;;;;;8.23;6.43;;;;;;;;;;5064982;28;20753;-81
2021/11/11 05:57:29;;;;;;;8.63;6.27;;;;;;;;;;5063541;28;20437;-80
2021/11/11 05:59:55;;;;;;;7.17;5.83;;;;;;;;;;5064634;28;20184;-79
2021/11/11 06:02:21;;;;;;;10.17;6.37;;;;;;;;;;5086993;28;20426;-80
2021/11/11 06:04:48;;;;;;;7.00;5.90;;;;;;;;;;5067629;28;20426;-81
2021/11/11 06:07:14;;;;;;;7.00;6.30;;;;;;;;;;5053722;28;20534;-80
2021/11/11 06:09:40;;;;;;;7.70;6.50;;;;;;;;;;5056828;28;20430;-80
2021/11/11 06:12:10;;;;;;;9.17;6.23;;;;;;;;;;5066831;28;20469;-80
2021/11/11 06:14:36;;;;;;;8.57;6.27;;;;;;;;;;5094863;28;20182;-79
2021/11/11 06:17:06;;;;;;;7.03;6.10;;;;;;;;;;5073306;28;20474;-80
2021/11/11 06:19:33;;;;;;;8.30;6.63;;;;;;;;;;5067185;28;21017;-80
2021/11/11 06:21:59;;;;;;;6.67;5.73;;;;;;;;;;5072363;28;20184;-80
2021/11/11 06:24:25;;;;;;;7.07;5.93;;;;;;;;;;5071450;28;20205;-79
2021/11/11 06:26:51;;;;;;;9.97;6.87;;;;;;;;;;5073512;28;20929;-80
2021/11/11 06:29:17;;;;;;;9.30;6.00;;;;;;;;;;5063746;28;20427;-80
2021/11/11 06:31:43;;;;;;;7.60;6.33;;;;;;;;;;5075179;28;20465;-80
2021/11/11 06:34:10;;;;;;;7.00;5.63;;;;;;;;;;5075952;28;20937;-80
2021/11/11 06:36:36;;;;;;;8.43;6.57;;;;;;;;;;5074327;28;20184;-79
2021/11/11 06:39:03;;;;;;;7.30;6.10;;;;;;;;;;5063343;28;20433;-80
2021/11/11 06:41:29;;;;;;;8.97;6.83;;;;;;;;;;5067410;28;20430;-81
2021/11/11 06:43:56;;;;;;;6.80;5.80;;;;;;;;;;5075466;28;20188;-79
2021/11/11 06:46:22;;;;;;;8.13;6.67;;;;;;;;;;5083287;28;20639;-80
2021/11/11 06:48:48;;;;;;;8.17;5.70;;;;;;;;;;5082702;28;20807;-80
2021/11/11 06:51:14;;;;;;;7.87;6.10;;;;;;;;;;5068527;28;20206;-80
2021/11/11 06:53:41;;;;;;;8.30;6.07;;;;;;;;;;5083488;28;20479;-80
2021/11/11 06:56:07;;;;;;;9.03;5.90;;;;;;;;;;5065846;28;20756;-80
2021/11/11 06:58:33;;;;;;;6.87;6.17;;;;;;;;;;5059098;28;20419;-80
2021/11/11 07:01:00;;;;;;;7.93;6.50;;;;;;;;;;5093050;28;20418;-80
2021/11/11 07:03:27;;;;;;;8.83;6.70;;;;;;;;;;5065312;28;20442;-80
2021/11/11 07:05:54;;;;;;;8.33;6.40;;;;;;;;;;5057428;28;20522;-80
2021/11/11 07:08:20;;;;;;;7.60;6.80;;;;;;;;;;5090014;28;20180;-81
2021/11/11 07:10:48;;;;;;;8.33;6.97;;;;;;;;;;5069089;28;20447;-79
2021/11/11 07:13:14;;;;;;;8.10;6.30;;;;;;;;;;5075061;28;20413;-81
2021/11/11 07:15:41;;;;;;;8.40;7.23;;;;;;;;;;5077184;28;20426;-80
2021/11/11 07:18:09;;;;;;;7.27;6.33;;;;;;;;;;5071761;28;20419;-79
2021/11/11 07:20:36;;;;;;;8.57;6.63;;;;;;;;;;5086074;28;20512;-80
2021/11/11 07:23:04;;;;;;;9.00;6.63;;;;;;;;;;5060787;28;20485;-79
2021/11/11 07:25:32;;;;;;;7.60;6.03;;;;;;;;;;5092018;28;20448;-80
2021/11/11 07:27:58;;;;;;;12.00;6.67;;;;;;;;;;5082809;28;20490;-80
2021/11/11 07:30:25;;;;;;;8.80;7.17;;;;;;;;;;5081757;28;20422;-80
2021/11/11 07:32:51;;;;;;;7.47;6.40;;;;;;;;;;5064334;28;20478;-79
2021/11/11 07:35:18;;;;;;;6.90;6.20;;;;;;;;;;5071017;28;20444;-80
2021/11/11 07:37:45;;;;;;;6.83;5.80;;;;;;;;;;5071326;28;20414;-80
2021/11/11 07:40:13;;;;;;;8.87;7.00;;;;;;;;;;5070488;28;20218;-80
2021/11/11 07:42:39;;;;;;;9.23;7.03;;;;;;;;;;5090774;28;20428;-80
2021/11/11 07:45:06;;;;;;;9.57;6.73;;;;;;;;;;5075848;28;20422;-80
2021/11/11 07:47:32;;;;;;;9.83;7.17;;;;;;;;;;5070899;28;20430;-80
2021/11/11 07:49:59;;;;;;;8.33;6.50;;;;;;;;;;5083432;28;20514;-80
2021/11/11 07:52:28;;;;;;;8.03;6.60;;;;;;;;;;5063554;28;20550;-80
2021/11/11 07:54:58;;;;;;;8.87;7.20;;;;;;;;;;5065767;28;21043;-80
2021/11/11 07:57:25;;;;;;;9.90;7.60;;;;;;;;;;5093811;28;20402;-79
2021/11/11 07:59:51;;;;;;;9.17;6.93;;;;;;;;;;5074805;28;20433;-79
2021/11/11 08:02:18;;;;;;;8.33;7.10;;;;;;;;;;5091441;28;20958;-78
2021/11/11 08:04:45;;;;;;;9.07;7.03;;;;;;;;;;5075954;28;20857;-79
2021/11/11 08:07:12;;;;;;;12.30;8.03;;;;;;;;;;5065746;28;20414;-78
2021/11/11 08:09:38;;;;;;;7.73;6.83;;;;;;;;;;5075712;28;20426;-81
2021/11/11 08:12:05;;;;;;;11.17;7.90;;;;;;;;;;5057131;28;21003;-80
2021/11/11 08:14:31;;;;;;;10.03;7.97;;;;;;;;;;5073427;28;20418;-79
2021/11/11 08:16:57;;;;;;;10.53;8.17;;;;;;;;;;5071356;28;20425;-79
2021/11/11 08:19:23;;;;;;;10.37;7.13;;;;;;;;;;5093580;28;20784;-80
2021/11/11 08:21:49;;;;;;;10.63;7.27;;;;;;;;;;5067389;28;20422;-79
2021/11/11 08:24:16;;;;;;;11.00;7.83;;;;;;;;;;5064037;28;20414;-79
2021/11/11 08:26:42;;;;;;;10.00;7.23;;;;;;;;;;5092447;28;20184;-80
2021/11/11 08:29:08;;;;;;;8.83;7.67;;;;;;;;;;5072009;28;20777;-80
2021/11/11 08:31:35;;;;;;;9.77;8.17;;;;;;;;;;5075914;28;20457;-80
2021/11/11 08:34:01;;;;;;;9.97;7.47;;;;;;;;;;5093794;28;20174;-81
2021/11/11 08:36:28;;;;;;;8.87;7.57;;;;;;;;;;5074111;28;20188;-78
2021/11/11 08:38:55;;;;;;;10.57;7.90;;;;;;;;;;5094234;28;20399;-80
2021/11/11 08:41:21;;;;;;;12.93;9.00;;;;;;;;;;5065833;28;20180;-80
2021/11/11 08:43:48;;;;;;;12.43;7.90;;;;;;;;;;5086277;28;20608;-79
2021/11/11 08:46:15;;;;;;;10.60;8.47;;;;;;;;;;5080520;28;20422;-82
2021/11/11 08:48:41;;;;;;;9.73;7.80;;;;;;;;;;5056319;28;20458;-82
2021/11/11 08:51:07;;;;;;;10.30;8.67;;;;;;;;;;5067989;28;20979;-82
2021/11/11 08:53:33;;;;;;;11.37;8.37;;;;;;;;;;5090171;28;20418;-81
2021/11/11 08:55:59;;;;;;;10.73;7.87;;;;;;;;;;5069906;28;20564;-82
2021/11/11 08:58:30;;;;;;;12.53;9.43;;;;;;;;;;5073472;28;20812;-81
2021/11/11 09:00:56;;;;;;;10.40;8.57;;;;;;;;;;5084238;28;20429;-81
2021/11/11 09:03:22;;;;;;;10.60;9.03;;;;;;;;;;5081890;28;20611;-80
2021/11/11 09:05:49;;;;;;;11.93;9.27;;;;;;;;;;5094874;28;20413;-80
2021/11/11 09:08:15;;;;;;;16.20;9.47;;;;;;;;;;5076274;28;20718;-81
2021/11/11 09:10:43;;;;;;;12.23;10.17;;;;;;;;;;5078638;28;20270;-82
2021/11/11 09:13:09;;;;;;;12.50;10.50;;;;;;;;;;5062150;28;20956;-81
2021/11/11 09:15:35;;;;;;;15.73;11.00;;;;;;;;;;5060959;28;20429;-79
2021/11/11 09:18:03;;;;;;;12.70;9.90;;;;;;;;;;5095350;28;20479;-81
2021/11/11 09:20:29;;;;;;;14.97;9.80;;;;;;;;;;5095135;28;20438;-80
2021/11/11 09:22:56;;;;;;;14.97;10.57;;;;;;;;;;5095149;28;20452;-81
2021/11/11 09:25:27;;;;;;;15.60;10.63;;;;;;;;;;5058741;28;20437;-81
2021/11/11 09:27:54;;;;;;;15.70;11.00;;;;;;;;;;5070364;28;20426;-81
2021/11/11 09:30:21;;;;;;;15.03;11.87;;;;;;;;;;5060319;28;20426;-81
2021/11/11 09:32:47;;;;;;;15.50;10.93;;;;;;;;;;5064565;28;20454;-82
2021/11/11 09:35:14;;;;;;;17.03;11.23;;;;;;;;;;5074137;28;20468;-80
2021/11/11 09:37:40;;;;;;;14.00;10.97;;;;;;;;;;5065942;28;20887;-81
2021/11/11 09:40:08;;;;;;;12.13;10.30;;;;;;;;;;5074108;28;20422;-80
2021/11/11 09:42:35;;;;;;;20.90;13.20;;;;;;;;;;5067147;28;20507;-80
2021/11/11 09:45:01;;;;;;;22.80;14.20;;;;;;;;;;5072878;28;20414;-80
2021/11/11 09:47:27;;;;;;;17.10;14.03;;;;;;;;;;5093265;28;20191;-80
2021/11/11 09:49:53;;;;;;;19.93;15.27;;;;;;;;;;5076366;28;20477;-80
2021/11/11 09:52:20;;;;;;;19.73;13.83;;;;;;;;;;5071407;28;20455;-81
2021/11/11 10:00:16;;;;;;;21.70;14.60;;;;;;;;;;5072952;28;20243;-81
2021/11/11 10:02:43;;;;;;;18.60;14.60;;;;;;;;;;5064710;28;20216;-81
2021/11/11 10:05:10;;;;;;;21.30;13.97;;;;;;;;;;5070397;28;20191;-81
2021/11/11 10:07:36;;;;;;;21.47;15.47;;;;;;;;;;5073841;28;20191;-81
2021/11/11 10:10:02;;;;;;;19.37;14.30;;;;;;;;;;5054400;28;20185;-81
2021/11/11 10:12:28;;;;;;;20.17;14.37;;;;;;;;;;5065474;28;20318;-81
2021/11/11 10:15:06;;;;;;;22.13;14.67;;;;;;;;;;5067576;28;20179;-81
2021/11/11 10:17:39;;;;;;;21.43;15.17;;;;;;;;;;5069313;28;20183;-81
2021/11/11 10:20:05;;;;;;;19.23;15.00;;;;;;;;;;5074487;28;20546;-81
2021/11/11 10:22:34;;;;;;;21.67;15.70;;;;;;;;;;5066181;28;20512;-80
2021/11/11 10:25:02;;;;;;;22.67;17.55;;;;;;;;;;5068328;28;20427;-82
2021/11/11 10:27:28;;;;;;;21.17;14.10;;;;;;;;;;5070526;28;20183;-82
2021/11/11 10:30:04;;;;;;;17.37;13.50;;;;;;;;;;5077263;28;20177;-82
2021/11/11 10:32:30;;;;;;;19.92;17.00;;;;;;;;;;5087240;28;20464;-80
2021/11/11 10:34:58;;;;;;;20.70;14.50;;;;;;;;;;5079867;28;20169;-79
2021/11/11 10:37:26;;;;;;;22.00;14.73;;;;;;;;;;5065209;28;20191;-80
2021/11/11 10:39:54;;;;;;;19.47;13.83;;;;;;;;;;5090881;28;20175;-79
2021/11/11 10:42:22;;;;;;;15.53;12.90;;;;;;;;;;5076724;28;20207;-79
2021/11/11 10:44:50;;;;;;;18.40;14.57;;;;;;;;;;5069267;28;20801;-81
2021/11/11 10:47:20;;;;;;;19.90;13.00;;;;;;;;;;5085864;28;20192;-81
2021/11/11 10:49:47;;;;;;;18.20;13.93;;;;;;;;;;5057022;28;20220;-81
2021/11/11 10:52:21;;;;;;;16.30;12.87;;;;;;;;;;5066577;28;20195;-80
2021/11/11 10:55:10;;;;;;;19.13;13.77;;;;;;;;;;5083157;28;20215;-81
2021/11/11 10:57:38;;;;;;;17.80;12.63;;;;;;;;;;5069943;28;20236;-80
2021/11/11 11:00:04;;;;;;;17.93;13.43;;;;;;;;;;5067649;28;20583;-80
2021/11/11 11:02:31;;;;;;;19.03;14.63;;;;;;;;;;5087261;28;20195;-81
2021/11/11 11:05:07;;;;;;;20.13;14.03;;;;;;;;;;5060036;28;20211;-80
2021/11/11 11:07:33;;;;;;;16.67;13.87;;;;;;;;;;5095715;28;20175;-80
2021/11/11 11:10:06;;;;;;;19.57;13.43;;;;;;;;;;5071425;28;20670;-79
2021/11/11 11:12:33;;;;;;;18.10;13.37;;;;;;;;;;5084558;28;20291;-79
2021/11/11 11:14:59;;;;;;;19.80;13.93;;;;;;;;;;5063429;28;20176;-80
2021/11/11 11:17:26;;;;;;;20.87;15.43;;;;;;;;;;5092424;28;20180;-80
2021/11/11 11:20:12;;;;;;;17.03;13.23;;;;;;;;;;5090051;28;20176;-81
2021/11/11 11:22:38;;;;;;;18.33;13.73;;;;;;;;;;5084583;28;20183;-80
2021/11/11 11:25:05;;;;;;;17.27;14.40;;;;;;;;;;5055862;28;20624;-80
2021/11/11 11:27:35;;;;;;;21.23;14.30;;;;;;;;;;5078022;28;20194;-81
2021/11/11 11:30:10;;;;;;;19.23;14.50;;;;;;;;;;5072052;28;20197;-81
2021/11/11 11:32:40;;;;;;;21.73;16.10;;;;;;;;;;5073675;28;20203;-82
2021/11/11 11:35:06;;;;;;;19.03;14.40;;;;;;;;;;5061903;28;20211;-81
2021/11/11 11:37:34;;;;;;;23.23;15.17;;;;;;;;;;5089564;28;20247;-82
2021/11/11 11:40:02;;;;;;;18.33;15.33;;;;;;;;;;5055367;28;20218;-79
2021/11/11 11:42:30;;;;;;;19.80;15.67;;;;;;;;;;5066386;28;20190;-81
2021/11/11 11:44:57;;;;;;;20.87;15.90;;;;;;;;;;5078103;28;20657;-81
2021/11/11 11:47:35;;;;;;;19.53;14.60;;;;;;;;;;5091596;28;20183;-78
2021/11/11 11:50:05;;;;;;;20.17;15.57;;;;;;;;;;5091405;28;20175;-81
2021/11/11 11:52:33;;;;;;;20.30;15.27;;;;;;;;;;5102797;28;20210;-78
2021/11/11 11:55:16;;;;;;;22.20;15.37;;;;;;;;;;5059290;28;20607;-79
2021/11/11 11:58:22;;;;;;;23.77;15.83;;;;;;;;;;5090961;28;20626;-79
2021/11/11 12:06:01;;;;;;;22.17;16.33;;;;;;;;;;5091616;28;20191;-79
2021/11/11 12:39:31;;;;;;;27.40;19.87;;;;;;;;;;5097265;28;20206;-80
2021/11/11 12:41:58;;;;;;;27.43;19.20;;;;;;;;;;5090156;28;20258;-79
2021/11/11 12:44:24;;;;;;;27.77;18.07;;;;;;;;;;5087115;28;20184;-78
2021/11/11 12:46:50;;;;;;;22.93;18.50;;;;;;;;;;5097786;28;20194;-78
2021/11/11 12:49:24;;;;;;;27.33;19.97;;;;;;;;;;5085154;28;20307;-78
2021/11/11 12:52:09;;;;;;;30.07;19.20;;;;;;;;;;5060903;28;20207;-78
2021/11/11 12:54:36;;;;;;;25.33;20.27;;;;;;;;;;5073462;28;20249;-79
2021/11/11 12:57:04;;;;;;;30.77;21.13;;;;;;;;;;5049049;28;20180;-79
2021/11/11 12:59:32;;;;;;;32.23;19.00;;;;;;;;;;5041617;28;20177;-78
2021/11/11 13:02:01;;;;;;;27.30;19.93;;;;;;;;;;5070162;28;20308;-78
2021/11/11 13:04:31;;;;;;;25.57;18.73;;;;;;;;;;5045954;28;20205;-78
2021/11/11 13:06:59;;;;;;;25.67;19.53;;;;;;;;;;5046271;28;20172;-78
2021/11/11 13:09:36;;;;;;;26.63;20.90;;;;;;;;;;5040735;28;20205;-78
2021/11/11 13:12:02;;;;;;;29.37;20.37;;;;;;;;;;5040940;28;20193;-78
2021/11/11 13:14:30;;;;;;;31.20;20.93;;;;;;;;;;5047152;28;20196;-78
2021/11/11 13:16:59;;;;;;;30.20;19.60;;;;;;;;;;5063751;28;20181;-78
2021/11/11 13:19:36;;;;;;;27.23;19.37;;;;;;;;;;5067502;28;20164;-77
2021/11/11 13:22:09;;;;;;;24.20;19.10;;;;;;;;;;5046928;28;20200;-78
2021/11/11 14:01:08;;;;;;;31.73;21.50;;;;;;;;;;5067699;28;20207;-78
2021/11/11 16:00:08;;;;;;;39.63;25.13;;;;;;;;;;5066079;28;20167;-83
2021/11/11 16:02:50;;;;;;;36.33;25.57;;;;;;;;;;5068474;28;20246;-81
2021/11/11 16:24:26;;;;;;;43.87;27.37;;;;;;;;;;5068333;28;20185;-82
2021/11/11 16:26:53;;;;;;;38.07;24.60;;;;;;;;;;5064042;28;20413;-82
2021/11/11 16:29:19;;;;;;;39.33;25.43;;;;;;;;;;5044888;28;20246;-81
2021/11/11 16:31:45;;;;;;;40.47;30.58;;;;;;;;;;5046668;28;20481;-82
2021/11/11 16:34:11;;;;;;;42.08;31.98;;;;;;;;;;5052841;28;20878;-81
2021/11/11 16:36:40;;;;;;;40.95;31.08;;;;;;;;;;5047129;28;20443;-82
2021/11/11 16:39:07;;;;;;;41.55;30.45;;;;;;;;;;5050004;28;20443;-83
2021/11/11 16:41:34;;;;;;;43.53;27.50;;;;;;;;;;5071261;28;20176;-81
2021/11/11 16:44:00;;;;;;;43.27;27.37;;;;;;;;;;5049864;28;20946;-81
2021/11/11 16:46:27;;;;;;;36.57;25.50;;;;;;;;;;5046622;28;20212;-81
2021/11/11 16:48:53;;;;;;;46.03;26.80;;;;;;;;;;5064618;28;20293;-82
2021/11/11 16:51:20;;;;;;;47.17;28.17;;;;;;;;;;5042963;28;20201;-82
2021/11/11 16:53:46;;;;;;;44.40;27.03;;;;;;;;;;5046304;28;20176;-82
2021/11/11 16:56:12;;;;;;;38.73;26.87;;;;;;;;;;5054986;28;20263;-81
2021/11/11 16:58:39;;;;;;;41.67;26.27;;;;;;;;;;5047220;28;20169;-82
2021/11/11 17:01:05;;;;;;;43.97;27.57;;;;;;;;;;5052935;28;20180;-81
2021/11/11 17:03:31;;;;;;;49.60;29.73;;;;;;;;;;5060390;28;20829;-81
2021/11/11 17:05:58;;;;;;;44.70;27.57;;;;;;;;;;5051974;28;20254;-81
2021/11/11 17:08:25;;;;;;;53.50;30.20;;;;;;;;;;5043529;28;20189;-81
2021/11/11 17:10:51;;;;;;;42.77;27.77;;;;;;;;;;5060635;28;20181;-80
2021/11/11 17:13:18;;;;;;;43.17;28.00;;;;;;;;;;5041782;28;20204;-81
2021/11/11 17:15:44;;;;;;;40.13;25.30;;;;;;;;;;5048652;28;20185;-82
2021/11/11 17:18:12;;;;;;;42.33;26.50;;;;;;;;;;5050927;28;20180;-81
2021/11/11 17:20:38;;;;;;;44.10;25.97;;;;;;;;;;5044551;28;20623;-82
2021/11/11 17:23:05;;;;;;;37.77;26.00;;;;;;;;;;5053568;28;20822;-82
2021/11/11 17:25:39;;;;;;;41.37;25.37;;;;;;;;;;5052116;28;20219;-83
2021/11/11 17:30:38;;;;;;;39.07;25.37;;;;;;;;;;5075783;28;20188;-83
2021/11/11 17:33:05;;;;;;;44.40;27.47;;;;;;;;;;5048506;28;20663;-80
2021/11/11 17:35:31;;;;;;;44.03;26.30;;;;;;;;;;5044759;28;20172;-78
2021/11/11 17:37:58;;;;;;;43.87;25.10;;;;;;;;;;5038352;28;20620;-79
2021/11/11 17:40:24;;;;;;;38.67;25.53;;;;;;;;;;5043192;28;20263;-78
2021/11/11 17:42:51;;;;;;;38.17;25.33;;;;;;;;;;5044925;28;20184;-81
2021/11/11 17:45:26;;;;;;;39.40;23.80;;;;;;;;;;5047016;28;20219;-80
2021/11/11 17:47:54;;;;;;;37.67;24.47;;;;;;;;;;5043486;28;20188;-80
2021/11/11 17:50:25;;;;;;;38.57;24.40;;;;;;;;;;5040195;28;20184;-82
2021/11/11 17:52:53;;;;;;;41.63;25.47;;;;;;;;;;5045667;28;20211;-82
2021/11/11 17:55:29;;;;;;;40.80;25.57;;;;;;;;;;5041096;28;20529;-81
2021/11/11 17:57:58;;;;;;;43.77;27.03;;;;;;;;;;5041711;28;20498;-81
2021/11/11 18:00:24;;;;;;;45.47;25.33;;;;;;;;;;5048629;28;20523;-81
2021/11/11 18:02:50;;;;;;;41.00;26.30;;;;;;;;;;5057696;28;20208;-81
2021/11/11 18:05:18;;;;;;;48.23;26.37;;;;;;;;;;5043359;28;20193;-81
2021/11/11 18:07:52;;;;;;;45.30;26.57;;;;;;;;;;5062108;28;20608;-81
2021/11/11 18:10:19;;;;;;;39.83;25.10;;;;;;;;;;5047831;28;20184;-81
2021/11/11 18:12:51;;;;;;;40.40;25.30;;;;;;;;;;5064357;28;20236;-80
2021/11/11 18:15:28;;;;;;;38.63;25.43;;;;;;;;;;5045729;28;20750;-81
2021/11/11 18:17:55;;;;;;;41.53;27.10;;;;;;;;;;5039324;28;20183;-83
2021/11/11 18:20:22;;;;;;;45.77;25.13;;;;;;;;;;5049619;28;20658;-82
2021/11/11 18:22:49;;;;;;;38.87;24.40;;;;;;;;;;5040247;28;20185;-83
2021/11/11 18:25:15;;;;;;;44.93;25.87;;;;;;;;;;5036927;28;20189;-83
2021/11/11 18:27:42;;;;;;;37.37;23.30;;;;;;;;;;5044316;28;20617;-83
2021/11/11 18:30:22;;;;;;;37.60;24.13;;;;;;;;;;5042170;28;20184;-82
2021/11/11 18:33:26;;;;;;;42.60;24.23;;;;;;;;;;5045988;28;20201;-81